Time;durP1;ratioP1;P1;durP2;ratioP2;P2;SDS_P1;SDS_P2;PMS_P1;PMS_P2;Temp;Humidity;BMP_temperature;BMP_pressure;BME280_temperature;BME280_humidity;BME280_pressure;Samples;Min_cycle;Max_cycle;Signal;HPM_P1;HPM_P2
2021/09/26 00:01:46;;;;;;;10.52;9.68;;;20.10;88.00;;;;;;5014155;28;20201;-91
2021/09/26 00:04:12;;;;;;;10.77;9.98;;;20.10;87.30;;;;;;5017576;28;20188;-92
2021/09/26 00:06:37;;;;;;;11.02;10.23;;;20.00;88.10;;;;;;5018265;28;20195;-89
2021/09/26 00:09:04;;;;;;;11.00;10.05;;;20.00;89.00;;;;;;5015449;28;20216;-89
2021/09/26 00:11:30;;;;;;;11.13;10.30;;;20.10;89.00;;;;;;5014790;28;20202;-89
2021/09/26 00:13:56;;;;;;;11.88;10.98;;;20.10;89.00;;;;;;5052575;28;20215;-92
2021/09/26 00:16:22;;;;;;;11.65;10.75;;;20.10;89.00;;;;;;5035151;28;20194;-92
2021/09/26 00:18:49;;;;;;;10.85;9.95;;;20.10;88.90;;;;;;5035950;28;20194;-92
2021/09/26 00:21:15;;;;;;;10.90;10.00;;;20.00;88.30;;;;;;5020469;28;20174;-89
2021/09/26 00:23:41;;;;;;;11.00;9.98;;;20.00;88.60;;;;;;5024164;28;20205;-89
2021/09/26 00:26:07;;;;;;;10.50;9.70;;;20.00;88.80;;;;;;5005632;28;20255;-92
2021/09/26 00:28:35;;;;;;;9.75;8.95;;;20.00;88.80;;;;;;5015437;28;20287;-89
2021/09/26 00:31:04;;;;;;;10.30;9.18;;;20.00;88.20;;;;;;5013894;28;20217;-89
2021/09/26 00:33:31;;;;;;;10.00;9.20;;;19.90;88.70;;;;;;4996182;28;20308;-92
2021/09/26 00:35:57;;;;;;;10.35;9.57;;;19.90;89.30;;;;;;4994509;28;20350;-89
2021/09/26 00:38:23;;;;;;;11.07;10.15;;;19.80;89.00;;;;;;5017083;28;20196;-90
2021/09/26 00:40:50;;;;;;;10.18;9.38;;;19.80;88.90;;;;;;5030126;28;20294;-91
2021/09/26 00:43:17;;;;;;;10.20;9.30;;;19.80;89.40;;;;;;5032862;28;20200;-91
2021/09/26 00:45:43;;;;;;;10.55;9.75;;;19.80;87.00;;;;;;5029823;28;20196;-91
2021/09/26 00:48:08;;;;;;;9.70;9.00;;;19.80;87.80;;;;;;5015560;28;20200;-91
2021/09/26 00:50:35;;;;;;;9.52;8.80;;;19.70;87.20;;;;;;5010308;28;20262;-91
2021/09/26 00:53:02;;;;;;;14.50;13.30;;;19.70;87.00;;;;;;5003774;28;20195;-90
2021/09/26 00:55:30;;;;;;;10.13;9.35;;;19.70;87.10;;;;;;5011909;28;20181;-92
2021/09/26 00:57:57;;;;;;;10.13;9.23;;;19.80;87.10;;;;;;5008594;28;20248;-91
2021/09/26 01:00:23;;;;;;;8.63;7.93;;;19.70;86.20;;;;;;5009365;28;20227;-91
2021/09/26 01:02:48;;;;;;;9.57;8.75;;;19.80;86.10;;;;;;5011981;28;20538;-91
2021/09/26 01:05:15;;;;;;;9.70;8.90;;;19.80;86.10;;;;;;5010446;28;20252;-89
2021/09/26 01:07:49;;;;;;;9.77;9.02;;;19.80;86.80;;;;;;5008670;28;20226;-90
2021/09/26 01:10:49;;;;;;;8.82;8.23;;;19.70;86.80;;;;;;5009239;28;20673;-89
2021/09/26 01:13:24;;;;;;;9.45;8.75;;;19.70;86.40;;;;;;5006995;28;20270;-89
2021/09/26 01:15:59;;;;;;;9.48;8.57;;;19.60;86.90;;;;;;5011849;28;20204;-89
2021/09/26 01:18:46;;;;;;;9.52;8.82;;;19.60;86.80;;;;;;5011900;28;20181;-89
2021/09/26 01:21:49;;;;;;;9.02;8.15;;;19.60;86.40;;;;;;5002350;28;20796;-89
2021/09/26 01:24:41;;;;;;;9.10;8.30;;;19.50;85.30;;;;;;5013350;28;20429;-89
2021/09/26 01:27:47;;;;;;;9.18;8.38;;;19.50;85.90;;;;;;5010958;28;20195;-89
2021/09/26 01:30:56;;;;;;;8.57;7.97;;;19.50;86.00;;;;;;4978216;28;20239;-89
2021/09/26 01:33:29;;;;;;;9.18;8.48;;;19.40;86.60;;;;;;4950484;28;20308;-89
2021/09/26 01:36:01;;;;;;;10.18;9.27;;;19.20;87.50;;;;;;4982473;28;20204;-90
2021/09/26 01:38:42;;;;;;;9.23;8.43;;;19.10;87.90;;;;;;5007689;28;20245;-90
2021/09/26 01:41:38;;;;;;;9.48;8.68;;;19.30;87.40;;;;;;5010850;28;20175;-90
2021/09/26 01:44:11;;;;;;;9.68;8.95;;;19.30;88.00;;;;;;4991416;28;20197;-90
2021/09/26 01:46:41;;;;;;;9.38;8.57;;;19.20;87.40;;;;;;5009681;28;20217;-90
2021/09/26 01:49:14;;;;;;;9.50;8.60;;;19.10;87.40;;;;;;5002906;28;20667;-89
2021/09/26 01:51:43;;;;;;;9.20;8.50;;;19.00;86.90;;;;;;5009189;28;20183;-89
2021/09/26 01:54:11;;;;;;;9.23;8.52;;;19.10;86.70;;;;;;5008553;28;20293;-89
2021/09/26 01:56:42;;;;;;;9.40;8.65;;;19.10;86.00;;;;;;5008167;28;20200;-90
2021/09/26 01:59:10;;;;;;;8.73;8.02;;;19.00;85.90;;;;;;4992716;28;20765;-91
2021/09/26 02:01:36;;;;;;;9.68;8.77;;;19.00;85.70;;;;;;4977332;28;20678;-89
2021/09/26 02:04:03;;;;;;;9.57;8.77;;;19.00;86.10;;;;;;5010908;28;20195;-90
2021/09/26 02:06:29;;;;;;;9.65;8.88;;;19.00;85.90;;;;;;5009131;28;20201;-90
2021/09/26 02:08:56;;;;;;;10.45;9.40;;;18.90;86.00;;;;;;5009248;28;20197;-89
2021/09/26 02:11:22;;;;;;;8.80;8.10;;;18.80;86.10;;;;;;5004919;28;20288;-89
2021/09/26 02:13:49;;;;;;;9.55;8.70;;;18.80;86.80;;;;;;5010308;28;20214;-90
2021/09/26 02:16:16;;;;;;;9.60;8.80;;;18.80;86.50;;;;;;5010645;28;20587;-90
2021/09/26 02:18:44;;;;;;;9.18;8.40;;;18.90;86.30;;;;;;5009163;28;20207;-89
2021/09/26 02:21:12;;;;;;;8.38;7.78;;;19.00;86.40;;;;;;5008326;28;20247;-90
2021/09/26 02:23:38;;;;;;;8.98;8.27;;;18.90;86.20;;;;;;5010416;28;20190;-90
2021/09/26 02:26:06;;;;;;;8.93;8.13;;;18.80;86.00;;;;;;5008911;28;20182;-89
2021/09/26 02:28:32;;;;;;;10.10;9.23;;;18.80;85.80;;;;;;5007854;28;20657;-90
2021/09/26 02:30:58;;;;;;;8.13;7.63;;;18.60;87.00;;;;;;5010628;28;20286;-90
2021/09/26 02:33:24;;;;;;;8.95;8.30;;;18.70;86.40;;;;;;5009352;28;20296;-90
2021/09/26 02:35:50;;;;;;;9.43;8.68;;;18.70;86.10;;;;;;5002509;28;20343;-90
2021/09/26 02:38:16;;;;;;;8.70;7.80;;;18.70;87.20;;;;;;4999391;28;20187;-90
2021/09/26 02:40:48;;;;;;;8.27;7.50;;;18.80;86.40;;;;;;4993294;28;20759;-90
2021/09/26 02:43:49;;;;;;;8.50;7.65;;;18.80;84.50;;;;;;5023722;28;20233;-90
2021/09/26 02:46:25;;;;;;;8.60;7.90;;;18.90;84.00;;;;;;4971020;28;20198;-90
2021/09/26 02:48:52;;;;;;;8.90;8.10;;;18.80;83.80;;;;;;5018674;28;20196;-90
2021/09/26 02:51:19;;;;;;;8.98;8.18;;;18.70;84.30;;;;;;5009078;28;20194;-90
2021/09/26 02:53:46;;;;;;;8.68;7.85;;;18.70;84.30;;;;;;5008720;28;20225;-90
2021/09/26 02:56:13;;;;;;;8.50;7.90;;;18.40;85.40;;;;;;5007694;28;20233;-91
2021/09/26 02:58:40;;;;;;;9.10;8.40;;;18.20;85.90;;;;;;4975954;28;20569;-90
2021/09/26 03:01:06;;;;;;;8.77;7.97;;;18.20;85.90;;;;;;4991207;28;20206;-90
2021/09/26 03:03:32;;;;;;;8.75;8.02;;;18.30;85.90;;;;;;5007323;28;20194;-90
2021/09/26 03:05:58;;;;;;;8.60;7.90;;;18.30;86.20;;;;;;5007092;28;20202;-90
2021/09/26 03:08:24;;;;;;;8.25;7.55;;;18.40;86.50;;;;;;5008751;28;20293;-89
2021/09/26 03:10:54;;;;;;;9.50;8.50;;;18.40;86.40;;;;;;5006510;28;20232;-90
2021/09/26 03:13:20;;;;;;;8.93;8.13;;;18.50;86.60;;;;;;5008552;28;20210;-90
2021/09/26 03:15:46;;;;;;;9.40;8.63;;;18.40;86.70;;;;;;5008964;28;20186;-90
2021/09/26 03:18:11;;;;;;;9.77;8.98;;;18.40;86.80;;;;;;5007077;28;20181;-90
2021/09/26 03:20:37;;;;;;;9.43;8.68;;;18.30;87.70;;;;;;5010748;28;20266;-90
2021/09/26 03:23:03;;;;;;;9.98;9.02;;;18.30;88.10;;;;;;5046344;28;20270;-90
2021/09/26 03:25:29;;;;;;;9.48;8.77;;;18.30;88.30;;;;;;5037233;28;20289;-90
2021/09/26 03:27:55;;;;;;;8.82;8.07;;;18.30;88.40;;;;;;5028536;28;20282;-90
2021/09/26 03:30:22;;;;;;;9.48;8.30;;;18.20;87.90;;;;;;5011067;28;20209;-90
2021/09/26 03:32:47;;;;;;;8.50;7.70;;;18.20;86.70;;;;;;5011445;28;20550;-90
2021/09/26 03:35:14;;;;;;;8.10;7.38;;;18.20;86.30;;;;;;5009451;28;20219;-90
2021/09/26 03:37:41;;;;;;;8.25;7.32;;;18.20;86.70;;;;;;5011039;28;20192;-90
2021/09/26 03:40:08;;;;;;;8.98;8.25;;;18.40;86.20;;;;;;5011118;28;20204;-90
2021/09/26 03:42:35;;;;;;;8.60;7.80;;;18.40;86.50;;;;;;5010135;28;20856;-90
2021/09/26 03:45:01;;;;;;;8.18;7.57;;;18.30;86.50;;;;;;5010835;28;20270;-90
2021/09/26 03:47:27;;;;;;;7.80;7.20;;;18.20;87.00;;;;;;5011330;28;20202;-90
2021/09/26 03:49:53;;;;;;;7.45;6.95;;;18.20;87.50;;;;;;5013660;28;20601;-90
2021/09/26 03:52:19;;;;;;;8.57;7.70;;;18.20;87.00;;;;;;5012936;28;20247;-90
2021/09/26 03:54:46;;;;;;;8.50;7.63;;;18.20;85.70;;;;;;5012231;28;20697;-90
2021/09/26 03:57:12;;;;;;;8.00;7.40;;;18.20;84.70;;;;;;4977696;28;20279;-90
2021/09/26 03:59:37;;;;;;;7.50;6.90;;;18.20;84.90;;;;;;4996503;28;20213;-90
2021/09/26 04:02:04;;;;;;;7.85;7.22;;;18.20;84.70;;;;;;5011668;28;20194;-90
2021/09/26 04:04:31;;;;;;;8.05;7.35;;;18.20;84.00;;;;;;5012226;28;20583;-90
2021/09/26 04:06:57;;;;;;;7.50;7.00;;;18.20;84.20;;;;;;4995803;28;20291;-90
2021/09/26 04:09:23;;;;;;;8.60;7.90;;;18.10;83.80;;;;;;5010246;28;20594;-90
2021/09/26 04:11:49;;;;;;;7.65;6.97;;;18.20;83.90;;;;;;5011897;28;20188;-90
2021/09/26 04:14:14;;;;;;;8.50;7.70;;;18.10;84.30;;;;;;5011822;28;20651;-91
2021/09/26 04:16:40;;;;;;;8.50;7.70;;;18.10;84.00;;;;;;5011126;28;20198;-90
2021/09/26 04:19:06;;;;;;;7.93;7.28;;;18.10;83.70;;;;;;5011292;28;20219;-90
2021/09/26 04:21:31;;;;;;;8.02;7.07;;;18.10;84.00;;;;;;5012897;28;20192;-90
2021/09/26 04:23:57;;;;;;;7.75;7.15;;;18.10;84.00;;;;;;4994281;28;20189;-91
2021/09/26 04:26:23;;;;;;;7.85;7.25;;;18.10;83.80;;;;;;5010295;28;20198;-90
2021/09/26 04:28:49;;;;;;;7.38;6.78;;;18.10;83.60;;;;;;5011912;28;20204;-90
2021/09/26 04:31:15;;;;;;;7.90;7.25;;;18.10;83.50;;;;;;5012138;28;20259;-90
2021/09/26 04:33:41;;;;;;;8.52;7.88;;;18.10;84.70;;;;;;5015088;28;20688;-90
2021/09/26 04:36:07;;;;;;;7.97;7.18;;;17.90;85.50;;;;;;5017617;28;20276;-90
2021/09/26 04:38:33;;;;;;;7.20;6.60;;;17.90;86.00;;;;;;5018572;28;20225;-90
2021/09/26 04:41:00;;;;;;;7.38;6.85;;;17.80;85.10;;;;;;5018578;28;20503;-90
2021/09/26 04:43:26;;;;;;;8.07;7.40;;;17.80;84.90;;;;;;5017337;28;20200;-91
2021/09/26 04:45:51;;;;;;;7.75;7.13;;;17.80;84.70;;;;;;5023619;28;20190;-89
2021/09/26 04:48:17;;;;;;;7.80;6.38;;;17.70;84.90;;;;;;5020167;28;20207;-90
2021/09/26 04:50:45;;;;;;;7.40;6.70;;;17.70;85.00;;;;;;4999689;28;20839;-90
2021/09/26 04:53:11;;;;;;;6.90;6.22;;;17.70;85.20;;;;;;5023073;28;20204;-89
2021/09/26 04:55:37;;;;;;;7.07;6.57;;;17.70;84.60;;;;;;5026641;28;20244;-90
2021/09/26 04:58:06;;;;;;;7.28;6.68;;;17.70;84.20;;;;;;4994817;28;20314;-89
2021/09/26 05:00:33;;;;;;;6.47;5.97;;;17.80;84.50;;;;;;5001510;28;20228;-90
2021/09/26 05:02:58;;;;;;;6.70;6.15;;;17.80;83.50;;;;;;5007065;28;20276;-90
2021/09/26 05:05:24;;;;;;;6.75;6.07;;;17.70;82.90;;;;;;5009074;28;20288;-89
2021/09/26 05:07:50;;;;;;;5.68;5.28;;;17.70;82.90;;;;;;4993235;28;20688;-91
2021/09/26 05:10:16;;;;;;;6.90;6.32;;;17.60;83.10;;;;;;5024905;28;20221;-91
2021/09/26 05:12:42;;;;;;;6.10;5.70;;;17.50;82.90;;;;;;5026868;28;20201;-90
2021/09/26 05:15:08;;;;;;;6.32;5.80;;;17.60;83.90;;;;;;5024709;28;20217;-90
2021/09/26 05:17:35;;;;;;;6.45;5.88;;;17.50;84.00;;;;;;5015737;28;20585;-90
2021/09/26 05:20:01;;;;;;;7.25;5.80;;;17.60;84.00;;;;;;4998063;28;20242;-90
2021/09/26 05:22:28;;;;;;;6.43;5.95;;;17.60;83.70;;;;;;5014340;28;20349;-89
2021/09/26 05:24:54;;;;;;;6.72;6.22;;;17.60;83.50;;;;;;5001657;28;20186;-89
2021/09/26 05:27:21;;;;;;;6.90;6.30;;;17.50;83.00;;;;;;5014374;28;20189;-89
2021/09/26 05:29:46;;;;;;;7.13;6.53;;;17.50;83.80;;;;;;5010540;28;20235;-90
2021/09/26 05:32:12;;;;;;;7.28;5.70;;;17.40;84.20;;;;;;5013735;28;20245;-89
2021/09/26 05:34:38;;;;;;;6.38;5.78;;;17.30;85.10;;;;;;5011470;28;20219;-90
2021/09/26 05:37:04;;;;;;;6.63;6.05;;;17.20;85.10;;;;;;5010841;28;20666;-90
2021/09/26 05:39:31;;;;;;;6.38;5.78;;;17.10;85.00;;;;;;5011982;28;20208;-90
2021/09/26 05:42:03;;;;;;;5.95;5.47;;;17.10;85.20;;;;;;5011607;28;20282;-90
2021/09/26 05:44:29;;;;;;;6.78;6.18;;;17.10;85.10;;;;;;5008762;28;20627;-90
2021/09/26 05:46:55;;;;;;;6.22;5.72;;;17.30;85.50;;;;;;5010584;28;20201;-89
2021/09/26 05:49:21;;;;;;;6.93;6.15;;;17.40;84.80;;;;;;5012278;28;20700;-90
2021/09/26 05:51:46;;;;;;;6.45;5.82;;;17.30;84.40;;;;;;5011244;28;20196;-89
2021/09/26 05:54:12;;;;;;;7.18;6.07;;;17.40;84.00;;;;;;5008771;28;20255;-89
2021/09/26 05:56:38;;;;;;;9.52;6.43;;;17.50;83.80;;;;;;5012668;28;20543;-89
2021/09/26 05:59:04;;;;;;;6.97;6.28;;;17.40;84.10;;;;;;5010555;28;20228;-89
2021/09/26 06:01:30;;;;;;;9.63;6.53;;;17.40;84.80;;;;;;5012342;28;20197;-90
2021/09/26 06:03:55;;;;;;;6.78;6.28;;;17.30;85.70;;;;;;5014271;28;20277;-89
2021/09/26 06:06:21;;;;;;;8.75;6.88;;;17.30;86.30;;;;;;5011336;28;20205;-89
2021/09/26 06:08:47;;;;;;;6.93;6.38;;;17.30;85.80;;;;;;5010771;28;20228;-90
2021/09/26 06:11:13;;;;;;;8.75;6.07;;;17.20;86.50;;;;;;5010545;28;20199;-88
2021/09/26 06:13:38;;;;;;;8.52;7.45;;;17.00;87.20;;;;;;5012260;28;20280;-89
2021/09/26 06:16:05;;;;;;;9.90;7.07;;;16.90;87.80;;;;;;5011504;28;20195;-88
2021/09/26 06:18:31;;;;;;;10.52;6.90;;;16.90;88.30;;;;;;5013119;28;20189;-89
2021/09/26 06:20:57;;;;;;;6.93;5.90;;;16.90;88.50;;;;;;5010740;28;20216;-88
2021/09/26 06:23:23;;;;;;;8.40;6.18;;;17.10;87.90;;;;;;5010201;28;20206;-87
2021/09/26 06:25:48;;;;;;;7.38;6.68;;;17.30;87.10;;;;;;4990723;28;20263;-89
2021/09/26 06:28:18;;;;;;;7.45;6.78;;;17.50;87.00;;;;;;5009030;28;20662;-89
2021/09/26 06:30:47;;;;;;;8.05;6.78;;;17.60;86.90;;;;;;5009771;28;20239;-89
2021/09/26 06:33:12;;;;;;;8.50;6.50;;;17.60;86.90;;;;;;5007083;28;20192;-87
2021/09/26 06:35:38;;;;;;;7.18;6.55;;;17.60;86.60;;;;;;5008798;28;20200;-87
2021/09/26 06:38:04;;;;;;;7.38;5.90;;;17.70;87.00;;;;;;5007606;28;20192;-89
2021/09/26 06:40:30;;;;;;;7.43;6.72;;;17.70;86.80;;;;;;5008162;28;20211;-88
2021/09/26 06:42:57;;;;;;;7.13;6.38;;;17.80;87.00;;;;;;4991431;28;20200;-88
2021/09/26 06:45:23;;;;;;;7.35;5.93;;;17.80;87.30;;;;;;5009268;28;20200;-89
2021/09/26 06:47:49;;;;;;;6.53;5.93;;;17.80;87.50;;;;;;5007297;28;20280;-89
2021/09/26 06:50:15;;;;;;;7.97;6.18;;;17.90;87.20;;;;;;5008586;28;20224;-88
2021/09/26 06:52:41;;;;;;;7.40;6.75;;;18.00;87.70;;;;;;5009567;28;20181;-88
2021/09/26 06:55:07;;;;;;;6.70;5.88;;;18.10;88.20;;;;;;5008942;28;20225;-88
2021/09/26 06:57:33;;;;;;;6.93;6.20;;;18.20;87.90;;;;;;5006641;28;20678;-88
2021/09/26 06:59:59;;;;;;;6.50;5.90;;;18.20;89.00;;;;;;5013302;28;20308;-88
2021/09/26 07:02:25;;;;;;;7.15;6.35;;;18.30;88.60;;;;;;5012108;28;20265;-89
2021/09/26 07:04:53;;;;;;;7.80;6.95;;;18.20;89.10;;;;;;5009335;28;20229;-89
2021/09/26 07:07:22;;;;;;;7.13;6.45;;;18.20;90.50;;;;;;5025020;28;20200;-88
2021/09/26 07:09:51;;;;;;;7.47;6.68;;;18.10;90.80;;;;;;5016471;28;20208;-88
2021/09/26 07:12:19;;;;;;;6.40;5.75;;;18.10;90.30;;;;;;5026677;28;20245;-86
2021/09/26 07:14:45;;;;;;;7.13;6.32;;;18.10;89.80;;;;;;5036687;28;20289;-90
2021/09/26 07:17:11;;;;;;;6.43;5.82;;;18.30;89.10;;;;;;5011894;28;20270;-89
2021/09/26 07:19:37;;;;;;;7.35;6.03;;;18.30;89.90;;;;;;4998330;28;20240;-90
2021/09/26 07:22:04;;;;;;;6.90;6.30;;;18.50;88.90;;;;;;5014128;28;20666;-90
2021/09/26 07:24:33;;;;;;;8.50;6.90;;;18.50;89.30;;;;;;5017081;28;20943;-89
2021/09/26 07:26:59;;;;;;;7.68;6.95;;;18.50;90.10;;;;;;5017768;28;20197;-89
2021/09/26 07:29:25;;;;;;;7.70;6.97;;;18.40;90.60;;;;;;4998873;28;20372;-91
2021/09/26 07:31:50;;;;;;;9.30;7.25;;;18.20;91.50;;;;;;5016938;28;20315;-86
2021/09/26 07:34:19;;;;;;;7.65;6.95;;;18.00;92.80;;;;;;5019106;28;20217;-88
2021/09/26 07:36:45;;;;;;;8.48;7.18;;;17.90;93.70;;;;;;5031296;28;20201;-88
2021/09/26 07:39:11;;;;;;;8.60;7.63;;;17.80;94.90;;;;;;5030185;28;20745;-88
2021/09/26 07:41:37;;;;;;;10.43;7.93;;;17.90;95.40;;;;;;5013045;28;20656;-88
2021/09/26 07:44:03;;;;;;;8.75;7.95;;;17.80;95.60;;;;;;5023498;28;20565;-88
2021/09/26 07:46:29;;;;;;;9.00;8.13;;;17.90;95.60;;;;;;5013653;28;20291;-88
2021/09/26 07:48:55;;;;;;;9.73;8.35;;;17.90;96.40;;;;;;5013662;28;20694;-87
2021/09/26 07:51:20;;;;;;;9.70;8.50;;;17.90;95.80;;;;;;4996990;28;20190;-87
2021/09/26 07:53:46;;;;;;;8.27;7.57;;;17.90;96.40;;;;;;4999891;28;20235;-89
2021/09/26 07:56:12;;;;;;;9.45;7.82;;;18.00;95.90;;;;;;4999277;28;20227;-88
2021/09/26 07:58:38;;;;;;;9.15;8.25;;;17.90;95.90;;;;;;5040558;28;20196;-89
2021/09/26 08:01:03;;;;;;;9.55;8.18;;;18.00;95.60;;;;;;5035514;28;20749;-88
2021/09/26 08:03:29;;;;;;;8.30;7.50;;;18.10;95.20;;;;;;5029659;28;20241;-88
2021/09/26 08:05:55;;;;;;;7.85;7.20;;;18.20;94.50;;;;;;5028695;28;20252;-88
2021/09/26 08:08:22;;;;;;;9.65;8.23;;;18.30;94.20;;;;;;5011541;28;20688;-88
2021/09/26 08:10:48;;;;;;;8.82;7.93;;;18.60;93.60;;;;;;5009713;28;20288;-89
2021/09/26 08:13:15;;;;;;;9.80;8.23;;;18.70;92.70;;;;;;5010133;28;20232;-89
2021/09/26 08:15:40;;;;;;;8.35;7.55;;;18.60;93.20;;;;;;4998895;28;20205;-88
2021/09/26 08:18:06;;;;;;;9.80;8.80;;;18.80;93.30;;;;;;5019974;28;20194;-88
2021/09/26 08:20:32;;;;;;;8.25;7.38;;;18.90;94.10;;;;;;5011579;28;20284;-88
2021/09/26 08:22:58;;;;;;;8.60;7.50;;;18.90;94.70;;;;;;5010824;28;20279;-89
2021/09/26 08:25:23;;;;;;;14.80;7.97;;;18.80;94.60;;;;;;5009407;28;20193;-88
2021/09/26 08:27:50;;;;;;;8.95;8.05;;;18.80;94.50;;;;;;5007511;28;20927;-87
2021/09/26 08:30:18;;;;;;;8.38;7.50;;;18.90;94.60;;;;;;5008033;28;20241;-87
2021/09/26 08:32:46;;;;;;;8.10;7.40;;;18.90;94.40;;;;;;5007779;28;20322;-87
2021/09/26 08:35:12;;;;;;;7.57;6.88;;;19.00;94.40;;;;;;5005806;28;20323;-87
2021/09/26 08:37:38;;;;;;;9.57;8.05;;;19.00;94.20;;;;;;4989821;28;20260;-87
2021/09/26 08:40:05;;;;;;;8.80;8.05;;;19.10;94.30;;;;;;5008345;28;20741;-87
2021/09/26 08:42:33;;;;;;;9.93;9.13;;;19.00;94.40;;;;;;5009028;28;20213;-87
2021/09/26 08:44:59;;;;;;;10.10;9.07;;;19.00;94.70;;;;;;5009270;28;20528;-87
2021/09/26 08:47:26;;;;;;;9.63;8.73;;;18.90;94.60;;;;;;5011903;28;20651;-87
2021/09/26 08:49:52;;;;;;;11.38;10.30;;;18.80;94.40;;;;;;4993641;28;20217;-87
2021/09/26 08:52:18;;;;;;;11.93;10.18;;;18.70;95.20;;;;;;5011163;28;20256;-87
2021/09/26 08:54:44;;;;;;;12.07;10.18;;;18.50;95.20;;;;;;5007749;28;20217;-87
2021/09/26 08:57:10;;;;;;;11.20;10.18;;;18.50;95.00;;;;;;4998734;28;20206;-87
2021/09/26 08:59:36;;;;;;;12.07;10.98;;;18.60;95.30;;;;;;5007502;28;20545;-87
2021/09/26 09:02:04;;;;;;;11.73;10.60;;;18.60;95.30;;;;;;5009222;28;20201;-87
2021/09/26 09:04:35;;;;;;;12.27;11.02;;;18.60;95.80;;;;;;5009539;28;20193;-88
2021/09/26 09:07:03;;;;;;;11.90;10.90;;;18.60;95.50;;;;;;5008800;28;20979;-87
2021/09/26 09:09:29;;;;;;;14.63;11.18;;;18.50;96.20;;;;;;4991759;28;20217;-87
2021/09/26 09:12:00;;;;;;;11.85;10.65;;;18.60;95.80;;;;;;5010852;28;20182;-87
2021/09/26 09:14:26;;;;;;;12.27;11.00;;;18.80;95.50;;;;;;5009102;28;20300;-88
2021/09/26 09:16:56;;;;;;;11.68;10.50;;;18.80;95.10;;;;;;5008909;28;20708;-87
2021/09/26 09:19:25;;;;;;;13.07;10.85;;;18.90;95.30;;;;;;4985870;28;20216;-87
2021/09/26 09:22:07;;;;;;;11.68;10.60;;;18.90;94.60;;;;;;4992424;28;20203;-87
2021/09/26 09:24:41;;;;;;;12.52;11.10;;;18.90;94.40;;;;;;5007733;28;20601;-87
2021/09/26 09:27:07;;;;;;;11.75;10.60;;;19.00;93.80;;;;;;5002475;28;20200;-88
2021/09/26 09:29:37;;;;;;;12.15;10.73;;;19.00;94.00;;;;;;5027025;28;20708;-88
2021/09/26 09:32:18;;;;;;;11.68;10.68;;;19.00;94.60;;;;;;5008892;28;20360;-88
2021/09/26 09:34:44;;;;;;;12.02;10.93;;;19.10;93.80;;;;;;5008259;28;20217;-87
2021/09/26 09:37:18;;;;;;;11.88;10.68;;;19.00;95.30;;;;;;5007495;28;20197;-87
2021/09/26 09:40:06;;;;;;;12.27;11.10;;;18.90;95.00;;;;;;5011730;28;20581;-88
2021/09/26 09:42:52;;;;;;;12.77;11.57;;;18.80;95.90;;;;;;5010119;28;20650;-87
2021/09/26 09:45:29;;;;;;;11.25;10.25;;;18.90;95.70;;;;;;5009326;28;20280;-87
2021/09/26 09:48:08;;;;;;;16.05;11.52;;;19.00;94.60;;;;;;5007067;28;20189;-87
2021/09/26 09:50:40;;;;;;;13.45;11.27;;;18.90;95.90;;;;;;4991785;28;20212;-87
2021/09/26 09:53:08;;;;;;;13.88;12.15;;;18.90;95.50;;;;;;5006589;28;20727;-87
2021/09/26 09:55:36;;;;;;;12.50;11.23;;;19.10;95.50;;;;;;5007713;28;20217;-88
2021/09/26 09:58:22;;;;;;;13.35;12.23;;;19.10;95.90;;;;;;5008104;28;20570;-88
2021/09/26 10:00:55;;;;;;;13.82;11.23;;;19.10;95.70;;;;;;5008776;28;20622;-88
2021/09/26 10:03:42;;;;;;;13.43;12.23;;;19.20;95.20;;;;;;5006334;28;20186;-88
2021/09/26 10:06:38;;;;;;;13.15;11.85;;;19.10;95.40;;;;;;5008181;28;20197;-89
2021/09/26 10:09:17;;;;;;;12.95;11.85;;;19.20;96.30;;;;;;5007524;28;20211;-88
2021/09/26 10:12:04;;;;;;;12.68;11.43;;;19.40;95.40;;;;;;5012048;28;20181;-88
2021/09/26 10:14:32;;;;;;;12.30;11.02;;;19.70;93.30;;;;;;5005200;28;20222;-89
2021/09/26 10:16:59;;;;;;;12.98;11.70;;;19.70;93.60;;;;;;5004027;28;20836;-89
2021/09/26 10:19:25;;;;;;;13.23;11.90;;;19.90;93.20;;;;;;4999644;28;20871;-89
2021/09/26 10:21:53;;;;;;;12.05;10.80;;;20.00;92.40;;;;;;4991682;28;20211;-88
2021/09/26 10:24:21;;;;;;;12.20;11.20;;;20.10;91.30;;;;;;5005761;28;20262;-88
2021/09/26 10:26:47;;;;;;;12.13;11.13;;;20.30;90.40;;;;;;5005536;28;20252;-87
2021/09/26 10:29:15;;;;;;;12.52;11.32;;;20.50;89.80;;;;;;5007115;28;20252;-88
2021/09/26 10:31:41;;;;;;;11.55;10.60;;;20.80;89.30;;;;;;5008690;28;20200;-87
2021/09/26 10:34:09;;;;;;;13.27;12.05;;;21.00;88.60;;;;;;5003908;28;20355;-87
2021/09/26 10:36:36;;;;;;;11.93;10.75;;;21.20;87.80;;;;;;5000205;28;20200;-89
2021/09/26 10:39:05;;;;;;;14.32;11.15;;;21.60;86.10;;;;;;5005889;28;20236;-89
2021/09/26 10:41:31;;;;;;;12.55;11.00;;;22.00;84.80;;;;;;5012721;28;20190;-89
2021/09/26 10:44:17;;;;;;;12.52;11.35;;;22.20;83.70;;;;;;5013666;28;20697;-89
2021/09/26 10:46:43;;;;;;;11.35;10.38;;;22.30;84.00;;;;;;5011970;28;20197;-86
2021/09/26 10:49:15;;;;;;;13.45;11.07;;;22.70;81.60;;;;;;5009837;28;20216;-89
2021/09/26 10:51:54;;;;;;;12.13;11.07;;;22.80;80.60;;;;;;5007513;28;20200;-88
2021/09/26 10:54:23;;;;;;;12.80;10.43;;;22.70;79.60;;;;;;5007197;28;20221;-89
2021/09/26 10:57:04;;;;;;;11.18;10.07;;;22.50;81.10;;;;;;5007912;28;20748;-88
2021/09/26 10:59:40;;;;;;;11.77;10.70;;;22.70;81.20;;;;;;5009747;28;20217;-89
2021/09/26 11:02:24;;;;;;;11.27;10.20;;;23.10;79.60;;;;;;5015606;28;20198;-89
2021/09/26 11:04:52;;;;;;;12.23;11.15;;;23.50;77.40;;;;;;5012705;28;20276;-89
2021/09/26 11:07:21;;;;;;;13.13;12.02;;;23.70;76.60;;;;;;5012413;28;20856;-88
2021/09/26 11:09:51;;;;;;;13.43;10.60;;;23.70;76.50;;;;;;5009518;28;20289;-88
2021/09/26 11:12:49;;;;;;;12.18;11.00;;;23.40;77.20;;;;;;5009932;28;20193;-89
2021/09/26 11:15:23;;;;;;;11.80;10.60;;;23.70;77.00;;;;;;5009461;28;20730;-89
2021/09/26 11:17:50;;;;;;;12.35;11.15;;;23.70;76.70;;;;;;5010519;28;20252;-88
2021/09/26 11:20:25;;;;;;;11.07;10.18;;;23.70;76.80;;;;;;5009375;28;20217;-87
2021/09/26 11:23:20;;;;;;;11.70;10.68;;;23.80;76.10;;;;;;5006987;28;20190;-89
2021/09/26 11:26:00;;;;;;;12.88;11.65;;;23.70;77.20;;;;;;5000570;28;20276;-89
2021/09/26 11:28:28;;;;;;;11.82;10.63;;;23.30;78.90;;;;;;5009884;28;20216;-88
2021/09/26 11:30:55;;;;;;;11.93;10.80;;;23.60;77.60;;;;;;5020238;28;20209;-88
2021/09/26 11:33:21;;;;;;;11.57;10.57;;;24.40;74.90;;;;;;5021478;28;20682;-88
2021/09/26 11:35:47;;;;;;;11.95;10.82;;;24.40;74.10;;;;;;5007804;28;20225;-88
2021/09/26 11:38:23;;;;;;;12.05;10.95;;;24.00;75.50;;;;;;5016290;28;20229;-88
2021/09/26 11:40:54;;;;;;;11.35;9.77;;;23.90;75.90;;;;;;5019374;28;20205;-89
2021/09/26 11:43:26;;;;;;;11.32;10.32;;;23.90;75.10;;;;;;5020030;28;20186;-89
2021/09/26 11:45:55;;;;;;;11.20;10.25;;;24.00;76.70;;;;;;5013920;28;20261;-88
2021/09/26 11:48:33;;;;;;;12.40;11.30;;;24.30;75.00;;;;;;5016512;28;20193;-88
2021/09/26 11:51:04;;;;;;;12.85;11.20;;;24.10;74.90;;;;;;5015761;28;20213;-88
2021/09/26 11:53:30;;;;;;;12.60;11.50;;;23.90;76.10;;;;;;4994869;28;20191;-88
2021/09/26 11:55:56;;;;;;;11.98;10.77;;;23.50;78.00;;;;;;5015413;28;20685;-89
2021/09/26 11:58:28;;;;;;;12.10;11.10;;;23.80;77.40;;;;;;5012678;28;20196;-89
2021/09/26 12:00:54;;;;;;;11.93;10.93;;;23.50;78.40;;;;;;5013013;28;20257;-88
2021/09/26 12:03:25;;;;;;;12.38;11.20;;;23.40;79.60;;;;;;4998849;28;20186;-89
2021/09/26 12:05:54;;;;;;;10.95;10.00;;;23.30;78.40;;;;;;4998464;28;20200;-89
2021/09/26 12:08:21;;;;;;;11.30;10.18;;;23.00;80.20;;;;;;5014047;28;20221;-88
2021/09/26 12:10:49;;;;;;;11.38;10.48;;;23.00;79.90;;;;;;5014345;28;20218;-88
2021/09/26 12:13:21;;;;;;;11.68;10.43;;;22.80;79.70;;;;;;4995217;28;20209;-89
2021/09/26 12:15:48;;;;;;;11.75;10.80;;;22.60;79.40;;;;;;5009025;28;20189;-89
2021/09/26 12:18:25;;;;;;;11.48;10.35;;;22.50;77.90;;;;;;4991778;28;20189;-92
2021/09/26 12:21:09;;;;;;;12.40;11.30;;;22.20;78.50;;;;;;4994926;28;20224;-89
2021/09/26 12:23:47;;;;;;;12.30;11.20;;;22.00;83.30;;;;;;4995301;28;20197;-89
2021/09/26 12:26:13;;;;;;;12.25;11.25;;;21.90;84.00;;;;;;5008339;28;20205;-88
2021/09/26 12:28:41;;;;;;;11.57;10.60;;;21.80;83.60;;;;;;5004877;28;20247;-88
2021/09/26 12:31:07;;;;;;;12.50;11.27;;;21.80;83.20;;;;;;5011572;28;20252;-88
2021/09/26 12:33:42;;;;;;;11.98;11.07;;;21.80;85.20;;;;;;4998134;28;20238;-87
2021/09/26 12:36:13;;;;;;;12.82;11.45;;;21.70;86.30;;;;;;5013161;28;20259;-87
2021/09/26 12:38:51;;;;;;;12.40;11.40;;;21.60;87.40;;;;;;5009097;28;20190;-88
2021/09/26 12:41:19;;;;;;;12.55;11.65;;;21.70;86.30;;;;;;5010228;28;20217;-88
2021/09/26 12:44:04;;;;;;;12.40;11.48;;;21.70;87.40;;;;;;5006910;28;20203;-88
2021/09/26 12:46:35;;;;;;;12.35;11.35;;;21.70;85.50;;;;;;5006707;28;20208;-88
2021/09/26 12:49:05;;;;;;;11.65;10.73;;;21.70;86.70;;;;;;4992035;28;20185;-87
2021/09/26 12:51:37;;;;;;;12.20;11.30;;;21.70;84.40;;;;;;5010112;28;20875;-87